Virden, Illinois
Current Conditions -  °F | °C
As of 5:15 PM on Wednesday 17 Dec 2014 (Local Time) from KTAZ Reporting Station
Scattered Clouds Scattered Clouds  
Wind Chill: 27°   Ceiling: Unl
Heat Index: 27°   Visibility: 10mi
Dew Point: 23°   Wind: 3mph
Humidity: 86%   Direction: 280°W
Pressure: 30.3"   Gusts: NA
Location:  39.5°N, 89.77°W
Report Text: KTAZ 172315Z AUTO 28003KT 10SM SCT017 M03/M05 A3030 RMK AO2
Loading
Personal Weather Stations






























Interactive Weather Map New forecast layout! Learn more

10-Day Weather Forecast

Advertisements
Track Severe Weather on mobile